createdAt,value
2023-01-24T00:00:34.109Z,-12.09
2023-01-24T00:01:36.014Z,-12.08
2023-01-24T00:02:38.370Z,-12.07
2023-01-24T00:03:40.524Z,-12.06
2023-01-24T00:04:42.494Z,-12.02
2023-01-24T00:05:47.342Z,-12.00
2023-01-24T00:06:49.295Z,-11.99
2023-01-24T00:07:51.708Z,-12.00
2023-01-24T00:08:54.391Z,-12.05
2023-01-24T00:09:56.393Z,-12.13
2023-01-24T00:11:03.633Z,-12.16
2023-01-24T00:12:05.823Z,-12.18
2023-01-24T00:13:08.248Z,-12.23
2023-01-24T00:14:10.174Z,-12.25
2023-01-24T00:15:12.226Z,-12.30
2023-01-24T00:16:20.234Z,-12.38
2023-01-24T00:17:23.095Z,-12.40
2023-01-24T00:18:25.243Z,-12.39
2023-01-24T00:19:27.271Z,-12.34
2023-01-24T00:20:29.234Z,-12.32
2023-01-24T00:21:31.109Z,-12.33
2023-01-24T00:22:33.380Z,-12.32
2023-01-24T00:23:35.525Z,-12.30
2023-01-24T00:24:37.648Z,-12.27
2023-01-24T00:25:39.744Z,-12.25
2023-01-24T00:26:42.064Z,-12.23
2023-01-24T00:27:44.012Z,-12.22
2023-01-24T00:28:48.095Z,-12.19
2023-01-24T00:29:50.354Z,-12.11
2023-01-24T00:30:52.414Z,-12.09
2023-01-24T00:31:54.555Z,-12.09
2023-01-24T00:32:56.757Z,-12.08
2023-01-24T00:33:58.748Z,-12.06
2023-01-24T00:35:00.827Z,-12.04
2023-01-24T00:36:03.829Z,-12.03
2023-01-24T00:37:05.885Z,-12.04
2023-01-24T00:38:07.943Z,-12.08
2023-01-24T00:39:12.034Z,-12.11
2023-01-24T00:41:46.001Z,-12.08
2023-01-24T00:42:48.222Z,-12.13
2023-01-24T00:43:50.123Z,-12.17
2023-01-24T00:44:52.099Z,-12.22
2023-01-24T00:45:54.618Z,-12.26
2023-01-24T00:46:56.687Z,-12.28
2023-01-24T00:47:58.675Z,-12.30
2023-01-24T00:49:01.421Z,-12.31
2023-01-24T00:50:03.741Z,-12.26
2023-01-24T00:51:06.364Z,-12.25
2023-01-24T00:52:08.643Z,-12.21
2023-01-24T00:53:10.942Z,-12.23
2023-01-24T00:54:12.951Z,-12.22
2023-01-24T00:55:14.989Z,-12.21
2023-01-24T00:56:16.950Z,-12.18
2023-01-24T00:57:19.004Z,-12.16
2023-01-24T00:58:21.170Z,-12.15
2023-01-24T00:59:23.204Z,-12.15
2023-01-24T01:00:27.134Z,-12.16
2023-01-24T01:01:29.238Z,-12.15
2023-01-24T01:02:31.275Z,-12.16
2023-01-24T01:03:33.869Z,-12.16
2023-01-24T01:04:35.849Z,-12.14
2023-01-24T01:05:37.730Z,-12.12
2023-01-24T01:06:39.732Z,-12.11
2023-01-24T01:07:41.808Z,-12.09
2023-01-24T01:08:44.311Z,-12.08
2023-01-24T01:09:49.461Z,-12.08
2023-01-24T01:10:52.090Z,-12.10
2023-01-24T01:11:54.175Z,-12.10
2023-01-24T01:12:56.194Z,-12.10
2023-01-24T01:13:58.528Z,-12.10
2023-01-24T01:15:00.587Z,-12.11
2023-01-24T01:16:14.134Z,-12.11
2023-01-24T01:17:16.645Z,-12.12
2023-01-24T01:18:19.011Z,-12.11
2023-01-24T01:19:21.130Z,-12.10
2023-01-24T01:20:23.196Z,-12.08
2023-01-24T01:21:25.338Z,-12.05
2023-01-24T01:22:27.592Z,-12.01
2023-01-24T01:23:30.247Z,-11.97
2023-01-24T01:24:32.374Z,-11.94
2023-01-24T01:25:34.285Z,-11.91
2023-01-24T01:26:36.363Z,-11.89
2023-01-24T01:27:38.434Z,-11.90
2023-01-24T01:28:40.812Z,-11.89
2023-01-24T01:29:42.988Z,-11.89
2023-01-24T01:30:49.726Z,-11.90
2023-01-24T01:31:51.844Z,-11.92
2023-01-24T01:32:53.840Z,-11.93
2023-01-24T01:33:55.841Z,-11.95
2023-01-24T01:34:57.922Z,-11.99
2023-01-24T01:36:00.009Z,-11.98
2023-01-24T01:37:01.966Z,-12.01
2023-01-24T01:38:03.866Z,-12.03
2023-01-24T01:39:06.006Z,-12.07
2023-01-24T01:40:08.969Z,-12.08
2023-01-24T01:41:14.043Z,-12.08
2023-01-24T01:42:16.092Z,-12.06
2023-01-24T01:43:22.291Z,-12.05
2023-01-24T01:44:39.381Z,-12.01
2023-01-24T01:45:55.411Z,-12.01
2023-01-24T01:46:57.420Z,-11.99
2023-01-24T01:48:01.093Z,-11.98
2023-01-24T01:49:06.007Z,-11.98
2023-01-24T01:50:29.565Z,-11.98
2023-01-24T01:51:47.297Z,-11.99
2023-01-24T01:52:50.272Z,-12.00
2023-01-24T01:54:14.162Z,-12.00
2023-01-24T01:55:19.918Z,-12.00
2023-01-24T01:56:54.677Z,-11.98
2023-01-24T01:57:56.759Z,-11.98
2023-01-24T01:59:03.448Z,-11.96
2023-01-24T02:00:08.655Z,-11.93
2023-01-24T02:01:10.953Z,-11.88
2023-01-24T02:02:13.426Z,-11.85
2023-01-24T02:03:35.279Z,-11.83
2023-01-24T02:04:40.980Z,-11.83
2023-01-24T02:05:43.199Z,-11.83
2023-01-24T02:07:06.458Z,-11.81
2023-01-24T02:08:13.101Z,-11.81
2023-01-24T02:09:17.727Z,-11.79
2023-01-24T02:10:23.714Z,-11.79
2023-01-24T02:11:40.226Z,-11.81
2023-01-24T02:12:48.427Z,-11.80
2023-01-24T02:14:10.534Z,-11.76
2023-01-24T02:15:36.942Z,-11.72
2023-01-24T02:16:39.056Z,-11.69
2023-01-24T02:17:42.657Z,-11.67
2023-01-24T02:18:45.740Z,-11.67
2023-01-24T02:20:55.692Z,-11.64
2023-01-24T02:22:09.095Z,-11.62
2023-01-24T02:23:58.542Z,-11.60
2023-01-24T02:25:19.919Z,-11.57
2023-01-24T02:26:24.348Z,-11.53
2023-01-24T02:27:29.150Z,-11.50
2023-01-24T02:28:31.123Z,-11.47
2023-01-24T02:29:33.171Z,-11.43
2023-01-24T02:30:37.047Z,-11.43
2023-01-24T02:31:58.493Z,-11.41
2023-01-24T02:33:00.534Z,-11.42
2023-01-24T02:34:02.481Z,-11.43
2023-01-24T02:35:05.527Z,-11.43
2023-01-24T02:36:28.557Z,-11.42
2023-01-24T02:37:31.129Z,-11.43
2023-01-24T02:38:33.202Z,-11.44
2023-01-24T02:40:07.751Z,-11.44
2023-01-24T02:41:11.142Z,-11.45
2023-01-24T02:42:16.052Z,-11.47
2023-01-24T02:43:20.842Z,-11.49
2023-01-24T02:44:35.941Z,-11.53
2023-01-24T02:45:38.008Z,-11.54
2023-01-24T02:46:43.600Z,-11.57
2023-01-24T02:47:49.085Z,-11.58
2023-01-24T02:48:52.138Z,-11.61
2023-01-24T02:49:54.285Z,-11.60
2023-01-24T02:51:15.210Z,-11.60
2023-01-24T02:52:35.674Z,-11.58
2023-01-24T02:53:37.727Z,-11.59
2023-01-24T02:54:40.819Z,-11.59
2023-01-24T02:56:01.502Z,-11.58
2023-01-24T02:57:22.134Z,-11.57
2023-01-24T02:58:25.029Z,-11.56
2023-01-24T02:59:27.959Z,-11.57
2023-01-24T03:00:30.347Z,-11.58
2023-01-24T03:01:32.716Z,-11.59
2023-01-24T03:02:34.869Z,-11.59
2023-01-24T03:03:37.703Z,-11.59
2023-01-24T03:04:39.871Z,-11.60
2023-01-24T03:05:47.896Z,-11.61
2023-01-24T03:06:52.736Z,-11.60
2023-01-24T03:07:54.624Z,-11.62
2023-01-24T03:08:56.585Z,-11.63
2023-01-24T03:09:58.683Z,-11.61
2023-01-24T03:11:00.727Z,-11.60
2023-01-24T03:12:23.698Z,-11.59
2023-01-24T03:13:44.893Z,-11.55
2023-01-24T03:15:05.951Z,-11.54
2023-01-24T03:16:27.800Z,-11.53
2023-01-24T03:17:48.557Z,-11.56
2023-01-24T03:19:09.154Z,-11.58
2023-01-24T03:20:30.183Z,-11.61
2023-01-24T03:21:50.559Z,-11.61
2023-01-24T03:23:11.035Z,-11.62
2023-01-24T03:24:31.742Z,-11.63
2023-01-24T03:25:52.686Z,-11.65
2023-01-24T03:27:13.285Z,-11.68
2023-01-24T03:28:33.756Z,-11.69
2023-01-24T03:29:54.523Z,-11.72
2023-01-24T03:31:15.276Z,-11.75
2023-01-24T03:32:36.049Z,-11.78
2023-01-24T03:33:56.750Z,-11.78
2023-01-24T03:34:58.941Z,-11.81
2023-01-24T03:36:07.660Z,-11.83
2023-01-24T03:37:09.786Z,-11.84
2023-01-24T03:38:30.428Z,-11.84
2023-01-24T03:39:51.112Z,-11.86
2023-01-24T03:40:53.814Z,-11.84
2023-01-24T03:41:55.872Z,-11.83
2023-01-24T03:42:57.896Z,-11.84
2023-01-24T03:44:00.022Z,-11.84
2023-01-24T03:45:02.901Z,-11.81
2023-01-24T03:46:05.485Z,-11.80
2023-01-24T03:47:07.582Z,-11.79
2023-01-24T03:48:14.120Z,-11.79
2023-01-24T03:49:17.951Z,-11.79
2023-01-24T03:50:38.383Z,-11.81
2023-01-24T03:51:58.791Z,-11.80
2023-01-24T03:53:00.827Z,-11.80
2023-01-24T03:54:03.062Z,-11.81
2023-01-24T03:55:05.660Z,-11.80
2023-01-24T03:56:08.060Z,-11.80
2023-01-24T03:57:10.053Z,-11.80
2023-01-24T03:58:12.880Z,-11.79
2023-01-24T03:59:15.098Z,-11.78
2023-01-24T04:00:17.767Z,-11.80
2023-01-24T04:01:19.873Z,-11.82
2023-01-24T04:02:22.310Z,-11.84
2023-01-24T04:03:24.960Z,-11.85
2023-01-24T04:04:46.969Z,-11.86
2023-01-24T04:05:51.530Z,-11.88
2023-01-24T04:06:53.425Z,-11.86
2023-01-24T04:07:56.124Z,-11.88
2023-01-24T04:08:58.092Z,-11.89
2023-01-24T04:10:00.267Z,-11.91
2023-01-24T04:11:02.309Z,-11.92
2023-01-24T04:12:04.507Z,-11.92
2023-01-24T04:13:06.410Z,-11.94
2023-01-24T04:14:08.335Z,-11.94
2023-01-24T04:15:18.383Z,-11.94
2023-01-24T04:16:20.703Z,-11.94
2023-01-24T04:17:22.864Z,-11.97
2023-01-24T04:18:24.957Z,-11.97
2023-01-24T04:19:26.918Z,-11.99
2023-01-24T04:20:31.545Z,-11.99
2023-01-24T04:21:33.724Z,-12.01
2023-01-24T04:22:35.880Z,-12.02
2023-01-24T04:23:38.904Z,-12.04
2023-01-24T04:24:40.803Z,-12.07
2023-01-24T04:25:42.853Z,-12.06
2023-01-24T04:26:45.058Z,-12.07
2023-01-24T04:27:47.279Z,-12.07
2023-01-24T04:28:49.221Z,-12.10
2023-01-24T04:29:51.188Z,-12.11
2023-01-24T04:31:00.537Z,-12.10
2023-01-24T04:32:02.930Z,-12.12
2023-01-24T04:33:04.868Z,-12.10
2023-01-24T04:34:06.845Z,-12.11
2023-01-24T04:35:09.357Z,-12.12
2023-01-24T04:36:12.919Z,-12.12
2023-01-24T04:37:15.298Z,-12.18
2023-01-24T04:38:17.579Z,-12.19
2023-01-24T04:39:19.449Z,-12.19
2023-01-24T04:40:21.357Z,-12.20
2023-01-24T04:41:23.395Z,-12.20
2023-01-24T04:42:25.887Z,-12.21
2023-01-24T04:43:28.233Z,-12.20
2023-01-24T04:44:30.394Z,-12.19
2023-01-24T04:45:32.314Z,-12.24
2023-01-24T04:46:34.346Z,-12.24
2023-01-24T04:47:36.407Z,-12.23
2023-01-24T04:48:38.653Z,-12.27
2023-01-24T04:49:42.767Z,-12.27
2023-01-24T04:50:44.672Z,-12.27
2023-01-24T04:51:51.258Z,-12.31
2023-01-24T04:52:53.287Z,-12.33
2023-01-24T04:53:55.562Z,-12.33
2023-01-24T04:54:57.495Z,-12.33
2023-01-24T04:56:03.075Z,-12.35
2023-01-24T04:57:05.282Z,-12.34
2023-01-24T04:58:07.433Z,-12.35
2023-01-24T04:59:12.085Z,-12.37
2023-01-24T05:00:14.433Z,-12.35
2023-01-24T05:01:16.441Z,-12.36
2023-01-24T05:02:18.659Z,-12.39
2023-01-24T05:03:20.632Z,-12.42
2023-01-24T05:04:28.339Z,-12.42
2023-01-24T05:05:30.261Z,-12.41
2023-01-24T05:06:33.643Z,-12.40
2023-01-24T05:07:35.772Z,-12.39
2023-01-24T05:08:37.723Z,-12.38
2023-01-24T05:09:39.974Z,-12.37
2023-01-24T05:10:42.008Z,-12.39
2023-01-24T05:11:43.947Z,-12.39
2023-01-24T05:12:45.958Z,-12.38
2023-01-24T05:13:47.955Z,-12.36
2023-01-24T05:14:49.867Z,-12.35
2023-01-24T05:15:52.806Z,-12.33
2023-01-24T05:16:54.906Z,-12.30
2023-01-24T05:17:56.951Z,-12.30
2023-01-24T05:18:59.066Z,-12.29
2023-01-24T05:20:01.039Z,-12.29
2023-01-24T05:21:12.466Z,-12.28
2023-01-24T05:22:14.743Z,-12.28
2023-01-24T05:23:16.915Z,-12.30
2023-01-24T05:24:19.675Z,-12.28
2023-01-24T05:25:22.122Z,-12.29
2023-01-24T05:26:26.524Z,-12.31
2023-01-24T05:27:28.730Z,-12.28
2023-01-24T05:28:31.716Z,-12.26
2023-01-24T05:29:33.808Z,-12.23
2023-01-24T05:30:35.894Z,-12.24
2023-01-24T05:31:38.010Z,-12.24
2023-01-24T05:32:40.501Z,-12.24
2023-01-24T05:33:43.190Z,-12.23
2023-01-24T05:34:45.282Z,-12.21
2023-01-24T05:35:47.279Z,-12.27
2023-01-24T05:36:49.368Z,-12.27
2023-01-24T05:37:52.136Z,-12.27
2023-01-24T05:38:54.267Z,-12.24
2023-01-24T05:39:59.410Z,-12.22
2023-01-24T05:41:13.071Z,-12.18
2023-01-24T05:42:15.001Z,-12.15
2023-01-24T05:43:17.088Z,-12.21
2023-01-24T05:44:19.095Z,-12.20
2023-01-24T05:45:21.445Z,-12.18
2023-01-24T05:46:24.283Z,-12.09
2023-01-24T05:47:26.454Z,-12.03
2023-01-24T05:48:29.076Z,-11.92
2023-01-24T05:49:31.486Z,-11.83
2023-01-24T05:50:33.675Z,-11.76
2023-01-24T05:51:35.753Z,-11.71
2023-01-24T05:52:37.645Z,-11.72
2023-01-24T05:53:41.526Z,-11.70
2023-01-24T05:54:43.565Z,-11.73
2023-01-24T05:55:45.762Z,-11.74
2023-01-24T05:56:47.822Z,-11.76
2023-01-24T05:57:49.762Z,-11.76
2023-01-24T05:58:51.647Z,-11.77
2023-01-24T05:59:54.000Z,-11.79
2023-01-24T06:00:56.071Z,-11.82
2023-01-24T06:01:58.087Z,-11.83
2023-01-24T06:03:04.225Z,-11.85
2023-01-24T06:04:06.671Z,-11.94
2023-01-24T06:05:08.820Z,-11.96
2023-01-24T06:06:12.175Z,-11.98
2023-01-24T06:07:14.070Z,-11.97
2023-01-24T06:08:16.698Z,-11.97
2023-01-24T06:09:18.583Z,-11.97
2023-01-24T06:10:20.553Z,-11.96
2023-01-24T06:11:26.999Z,-12.01
2023-01-24T06:12:29.330Z,-12.03
2023-01-24T06:13:31.486Z,-12.03
2023-01-24T06:14:33.452Z,-12.03
2023-01-24T06:15:35.720Z,-11.99
2023-01-24T06:16:37.865Z,-12.00
2023-01-24T06:17:39.877Z,-11.98
2023-01-24T06:18:42.207Z,-11.96
2023-01-24T06:19:44.418Z,-11.96
2023-01-24T06:20:46.719Z,-11.95
2023-01-24T06:22:18.511Z,-11.92
2023-01-24T06:23:27.603Z,-11.88
2023-01-24T06:24:29.916Z,-11.87
2023-01-24T06:25:32.574Z,-11.86
2023-01-24T06:26:35.072Z,-11.91
2023-01-24T06:27:37.358Z,-11.93
2023-01-24T06:28:40.300Z,-11.96
2023-01-24T06:29:42.661Z,-11.96
2023-01-24T06:30:52.546Z,-11.92
2023-01-24T06:32:15.923Z,-11.89
2023-01-24T06:33:51.700Z,-11.83
2023-01-24T06:35:05.252Z,-11.78
2023-01-24T06:36:28.357Z,-11.77
2023-01-24T06:37:51.272Z,-11.72
2023-01-24T06:38:53.738Z,-11.70
2023-01-24T06:39:56.046Z,-11.69
2023-01-24T06:41:00.481Z,-11.70
2023-01-24T06:42:02.650Z,-11.64
2023-01-24T06:43:04.911Z,-11.65
2023-01-24T06:44:08.728Z,-11.73
2023-01-24T06:45:11.530Z,-11.83
2023-01-24T06:46:14.852Z,-11.93
2023-01-24T06:47:17.603Z,-11.95
2023-01-24T06:48:20.082Z,-11.94
2023-01-24T06:49:22.162Z,-11.92
2023-01-24T06:50:24.513Z,-11.90
2023-01-24T06:51:26.422Z,-11.88
2023-01-24T06:52:28.448Z,-11.83
2023-01-24T06:53:30.438Z,-11.84
2023-01-24T06:54:33.859Z,-11.89
2023-01-24T06:55:36.187Z,-11.87
2023-01-24T06:56:38.093Z,-11.87
2023-01-24T06:57:40.224Z,-11.85
2023-01-24T06:58:42.349Z,-11.82
2023-01-24T06:59:44.344Z,-11.80
2023-01-24T07:00:46.417Z,-11.79
2023-01-24T07:01:48.466Z,-11.78
2023-01-24T07:03:07.478Z,-11.76
2023-01-24T07:04:09.770Z,-11.76
2023-01-24T07:05:11.671Z,-11.79
2023-01-24T07:06:14.549Z,-11.78
2023-01-24T07:07:16.508Z,-11.80
2023-01-24T07:08:21.852Z,-11.78
2023-01-24T07:09:25.677Z,-11.73
2023-01-24T07:10:27.942Z,-11.67
2023-01-24T07:11:30.190Z,-11.64
2023-01-24T07:12:32.285Z,-11.60
2023-01-24T07:13:34.471Z,-11.55
2023-01-24T07:14:36.446Z,-11.51
2023-01-24T07:15:38.503Z,-11.47
2023-01-24T07:16:40.488Z,-11.46
2023-01-24T07:17:42.790Z,-11.42
2023-01-24T07:18:44.948Z,-11.44
2023-01-24T07:19:47.327Z,-11.47
2023-01-24T07:20:49.659Z,-11.47
2023-01-24T07:21:53.878Z,-11.48
2023-01-24T07:22:57.408Z,-11.55
2023-01-24T07:24:00.376Z,-11.57
2023-01-24T07:25:03.124Z,-11.55
2023-01-24T07:26:05.682Z,-11.53
2023-01-24T07:27:08.368Z,-11.51
2023-01-24T07:28:10.774Z,-11.50
2023-01-24T07:29:12.715Z,-11.50
2023-01-24T07:30:15.048Z,-11.47
2023-01-24T07:31:17.689Z,-11.42
2023-01-24T07:32:19.817Z,-11.38
2023-01-24T07:33:22.625Z,-11.30
2023-01-24T07:34:24.629Z,-11.27
2023-01-24T07:35:26.613Z,-11.27
2023-01-24T07:36:28.688Z,-11.27
2023-01-24T07:37:31.045Z,-11.27
2023-01-24T07:38:33.093Z,-11.24
2023-01-24T07:39:35.102Z,-11.22
2023-01-24T07:40:37.601Z,-11.27
2023-01-24T07:41:46.753Z,-11.29
2023-01-24T07:42:48.692Z,-11.30
2023-01-24T07:43:51.213Z,-11.28
2023-01-24T07:44:55.012Z,-11.31
2023-01-24T07:45:57.062Z,-11.28
2023-01-24T07:46:59.017Z,-11.26
2023-01-24T07:48:01.120Z,-11.25
2023-01-24T07:49:03.993Z,-11.24
2023-01-24T07:50:06.326Z,-11.22
2023-01-24T07:51:10.528Z,-11.21
2023-01-24T07:52:12.996Z,-11.21
2023-01-24T07:53:14.938Z,-11.20
2023-01-24T07:54:19.712Z,-11.17
2023-01-24T07:55:23.445Z,-11.15
2023-01-24T07:56:26.473Z,-11.15
2023-01-24T07:57:28.655Z,-11.14
2023-01-24T07:58:31.754Z,-11.16
2023-01-24T07:59:38.554Z,-11.16
2023-01-24T08:00:41.753Z,-11.18
2023-01-24T08:01:43.752Z,-11.23
2023-01-24T08:02:46.323Z,-11.24
2023-01-24T08:03:48.263Z,-11.23
2023-01-24T08:04:50.147Z,-11.29
2023-01-24T08:05:52.154Z,-11.32
2023-01-24T08:07:12.703Z,-11.41
2023-01-24T08:08:14.825Z,-11.37
2023-01-24T08:09:16.800Z,-11.32
2023-01-24T08:10:19.106Z,-11.26
2023-01-24T08:11:23.217Z,-11.19
2023-01-24T08:12:25.579Z,-11.13
2023-01-24T08:13:27.625Z,-11.10
2023-01-24T08:14:29.490Z,-11.08
2023-01-24T08:15:31.642Z,-11.06
2023-01-24T08:16:33.629Z,-11.04
2023-01-24T08:17:37.930Z,-11.01
2023-01-24T08:18:41.965Z,-11.06
2023-01-24T08:19:59.422Z,-11.09
2023-01-24T08:21:01.665Z,-11.04
2023-01-24T08:22:03.874Z,-11.05
2023-01-24T08:23:05.792Z,-11.03
2023-01-24T08:24:08.610Z,-11.03
2023-01-24T08:25:12.706Z,-11.01
2023-01-24T08:26:14.795Z,-10.98
2023-01-24T08:27:16.718Z,-10.94
2023-01-24T08:28:18.784Z,-11.04
2023-01-24T08:29:20.878Z,-11.00
2023-01-24T08:30:23.120Z,-11.00
2023-01-24T08:31:25.550Z,-11.00
2023-01-24T08:32:27.747Z,-10.97
2023-01-24T08:33:30.988Z,-10.94
2023-01-24T08:34:34.418Z,-10.87
2023-01-24T08:35:39.196Z,-10.85
2023-01-24T08:36:41.396Z,-10.79
2023-01-24T08:37:45.147Z,-10.75
2023-01-24T08:38:47.374Z,-10.69
2023-01-24T08:39:49.287Z,-10.61
2023-01-24T08:40:51.545Z,-10.63
2023-01-24T08:41:53.425Z,-10.64
2023-01-24T08:42:55.544Z,-10.62
2023-01-24T08:43:57.811Z,-10.61
2023-01-24T08:44:59.799Z,-10.62
2023-01-24T08:46:01.917Z,-10.63
2023-01-24T08:47:03.960Z,-10.65
2023-01-24T08:48:06.351Z,-10.66
2023-01-24T08:49:08.336Z,-10.65
2023-01-24T08:50:11.403Z,-10.68
2023-01-24T08:51:13.372Z,-10.69
2023-01-24T08:52:15.351Z,-10.69
2023-01-24T08:53:17.317Z,-10.68
2023-01-24T08:54:19.436Z,-10.68
2023-01-24T08:55:21.998Z,-10.74
2023-01-24T08:56:24.210Z,-10.75
2023-01-24T08:57:26.106Z,-10.76
2023-01-24T08:58:28.643Z,-10.76
2023-01-24T08:59:30.632Z,-10.73
2023-01-24T09:00:33.061Z,-10.69
2023-01-24T09:01:35.133Z,-10.67
2023-01-24T09:02:39.120Z,-10.70
2023-01-24T09:03:41.078Z,-10.68
2023-01-24T09:04:43.739Z,-10.67
2023-01-24T09:05:46.379Z,-10.69
2023-01-24T09:06:48.553Z,-10.68
2023-01-24T09:07:50.649Z,-10.65
2023-01-24T09:08:55.975Z,-10.64
2023-01-24T09:09:57.888Z,-10.60
2023-01-24T09:11:00.720Z,-10.58
2023-01-24T09:12:02.768Z,-10.60
2023-01-24T09:13:05.665Z,-10.58
2023-01-24T09:14:07.887Z,-10.58
2023-01-24T09:15:10.225Z,-10.65
2023-01-24T09:16:12.466Z,-10.69
2023-01-24T09:17:14.361Z,-10.71
2023-01-24T09:18:17.940Z,-10.65
2023-01-24T09:19:20.062Z,-10.60
2023-01-24T09:20:22.137Z,-10.58
2023-01-24T09:21:24.218Z,-10.58
2023-01-24T09:22:26.238Z,-10.54
2023-01-24T09:23:28.233Z,-10.44
2023-01-24T09:24:30.372Z,-10.37
2023-01-24T09:25:32.469Z,-10.29
2023-01-24T09:26:34.807Z,-10.22
2023-01-24T09:27:38.027Z,-10.13
2023-01-24T09:28:41.278Z,-10.06
2023-01-24T09:29:43.473Z,-10.05
2023-01-24T09:30:45.398Z,-10.07
2023-01-24T09:31:50.401Z,-10.11
2023-01-24T09:32:52.729Z,-10.09
2023-01-24T09:33:59.796Z,-10.05
2023-01-24T09:35:02.461Z,-9.97
2023-01-24T09:36:05.793Z,-9.92
2023-01-24T09:37:07.936Z,-9.91
2023-01-24T09:38:09.852Z,-9.86
2023-01-24T09:39:11.860Z,-9.80
2023-01-24T09:40:19.730Z,-9.80
2023-01-24T09:42:09.996Z,-9.74
2023-01-24T09:43:37.567Z,-9.64
2023-01-24T09:45:30.819Z,-9.58
2023-01-24T09:46:46.307Z,-9.55
2023-01-24T09:47:55.034Z,-9.56
2023-01-24T09:49:24.378Z,-9.54
2023-01-24T09:50:30.629Z,-9.56
2023-01-24T09:51:38.035Z,-9.53
2023-01-24T09:52:48.859Z,-9.51
2023-01-24T09:53:57.492Z,-9.46
2023-01-24T09:55:25.130Z,-9.41
2023-01-24T09:56:35.821Z,-9.39
2023-01-24T09:58:05.703Z,-9.35
2023-01-24T09:59:11.282Z,-9.36
2023-01-24T10:00:28.512Z,-9.38
2023-01-24T10:01:30.498Z,-9.36
2023-01-24T10:02:33.675Z,-9.36
2023-01-24T10:03:37.044Z,-9.39
2023-01-24T10:04:39.031Z,-9.46
2023-01-24T10:05:44.411Z,-9.46
2023-01-24T10:07:02.428Z,-9.48
2023-01-24T10:08:07.453Z,-9.48
2023-01-24T10:09:23.486Z,-9.48
2023-01-24T10:10:37.886Z,-9.44
2023-01-24T10:12:17.519Z,-9.44
2023-01-24T10:13:45.314Z,-9.37
2023-01-24T10:15:05.963Z,-9.38
2023-01-24T10:16:45.774Z,-9.40
2023-01-24T10:18:15.754Z,-9.37
2023-01-24T10:19:39.154Z,-9.37
2023-01-24T10:21:22.648Z,-9.36
2023-01-24T10:22:49.850Z,-9.35
2023-01-24T10:23:58.893Z,-9.35
2023-01-24T10:25:10.157Z,-9.34
2023-01-24T10:26:17.763Z,-9.32
2023-01-24T10:27:30.124Z,-9.27
2023-01-24T10:28:42.284Z,-9.21
2023-01-24T10:29:47.561Z,-9.15
2023-01-24T10:31:15.916Z,-9.04
2023-01-24T10:32:32.782Z,-8.98
2023-01-24T10:33:42.686Z,-8.96
2023-01-24T10:34:48.171Z,-8.94
2023-01-24T10:35:58.338Z,-8.98
2023-01-24T10:37:07.527Z,-9.01
2023-01-24T10:38:15.692Z,-8.98
2023-01-24T10:39:18.264Z,-8.95
2023-01-24T10:40:20.429Z,-8.93
2023-01-24T10:41:27.866Z,-8.96
2023-01-24T10:42:32.580Z,-8.98
2023-01-24T10:43:35.528Z,-9.01
2023-01-24T10:44:40.660Z,-8.98
2023-01-24T10:45:43.076Z,-8.97
2023-01-24T10:47:12.834Z,-8.93
2023-01-24T10:48:26.764Z,-8.89
2023-01-24T10:49:41.376Z,-8.84
2023-01-24T10:50:45.152Z,-8.83
2023-01-24T10:52:26.600Z,-8.78
2023-01-24T10:53:31.284Z,-8.77
2023-01-24T10:54:55.789Z,-8.76
2023-01-24T10:56:04.507Z,-8.74
2023-01-24T10:57:18.490Z,-8.77
2023-01-24T10:58:27.805Z,-8.76
2023-01-24T10:59:30.379Z,-8.75
2023-01-24T11:00:36.680Z,-8.74
2023-01-24T11:01:43.592Z,-8.74
2023-01-24T11:02:51.479Z,-8.73
2023-01-24T11:03:55.694Z,-8.74
2023-01-24T11:05:03.321Z,-8.74
2023-01-24T11:06:05.625Z,-8.75
2023-01-24T11:07:08.303Z,-8.75
2023-01-24T11:08:19.573Z,-8.74
2023-01-24T11:09:28.398Z,-8.77
2023-01-24T11:10:37.544Z,-8.81
2023-01-24T11:11:47.293Z,-8.82
2023-01-24T11:13:01.116Z,-8.83
2023-01-24T11:14:04.005Z,-8.83
2023-01-24T11:15:15.335Z,-8.83
2023-01-24T11:16:17.287Z,-8.86
2023-01-24T11:17:37.609Z,-8.87
2023-01-24T11:18:51.158Z,-8.92
2023-01-24T11:20:02.023Z,-8.93
2023-01-24T11:21:16.105Z,-8.94
2023-01-24T11:22:27.471Z,-8.93
2023-01-24T11:23:29.567Z,-8.92
2023-01-24T11:24:31.650Z,-8.91
2023-01-24T11:25:33.841Z,-8.90
2023-01-24T11:26:53.433Z,-8.92
2023-01-24T11:27:55.431Z,-8.92
2023-01-24T11:29:07.319Z,-8.93
2023-01-24T11:30:18.930Z,-8.96
2023-01-24T11:31:45.233Z,-8.94
2023-01-24T11:32:59.165Z,-8.98
2023-01-24T11:34:10.516Z,-9.01
2023-01-24T11:35:20.854Z,-9.07
2023-01-24T11:36:37.010Z,-9.09
2023-01-24T11:38:03.672Z,-9.10
2023-01-24T11:39:31.716Z,-9.10
2023-01-24T11:41:03.312Z,-9.12
2023-01-24T11:42:20.973Z,-9.19
2023-01-24T11:43:41.109Z,-9.20
2023-01-24T11:45:04.872Z,-9.22
2023-01-24T11:46:31.502Z,-9.21
2023-01-24T11:47:39.727Z,-9.24
2023-01-24T11:48:50.638Z,-9.27
2023-01-24T11:50:10.635Z,-9.27
2023-01-24T11:51:31.436Z,-9.28
2023-01-24T11:53:09.652Z,-9.35
2023-01-24T11:54:41.219Z,-9.38
2023-01-24T11:56:10.865Z,-9.40
2023-01-24T11:57:37.366Z,-9.45
2023-01-24T11:59:07.305Z,-9.48
2023-01-24T12:00:30.870Z,-9.54
2023-01-24T12:02:02.618Z,-9.54
2023-01-24T12:03:38.038Z,-9.55
2023-01-24T12:05:16.385Z,-9.60
2023-01-24T12:06:31.349Z,-9.61
2023-01-24T12:07:56.613Z,-9.65
2023-01-24T12:09:21.460Z,-9.68
2023-01-24T12:11:14.812Z,-9.69
2023-01-24T12:12:50.531Z,-9.72
2023-01-24T12:14:24.147Z,-9.75
2023-01-24T12:15:47.262Z,-9.78
2023-01-24T12:17:15.090Z,-9.81
2023-01-24T12:18:25.268Z,-9.80
2023-01-24T12:19:48.349Z,-9.83
2023-01-24T12:21:01.046Z,-9.84
2023-01-24T12:22:24.197Z,-9.87
2023-01-24T12:23:47.755Z,-9.90
2023-01-24T12:24:55.185Z,-9.90
2023-01-24T12:26:03.994Z,-9.92
2023-01-24T12:27:17.408Z,-9.96
2023-01-24T12:28:39.449Z,-9.96
2023-01-24T12:29:46.382Z,-10.00
2023-01-24T12:30:57.334Z,-10.02
2023-01-24T12:32:04.791Z,-10.06
2023-01-24T12:33:28.598Z,-10.07
2023-01-24T12:34:49.129Z,-10.11
2023-01-24T12:35:59.595Z,-10.12
2023-01-24T12:37:20.330Z,-10.14
2023-01-24T12:38:45.233Z,-10.14
2023-01-24T12:40:00.933Z,-10.18
2023-01-24T12:43:05.031Z,-10.28
2023-01-24T12:44:33.812Z,-10.32
2023-01-24T12:45:46.689Z,-10.35
2023-01-24T12:47:24.527Z,-10.38
2023-01-24T12:48:38.042Z,-10.43
2023-01-24T12:50:01.582Z,-10.45
2023-01-24T12:51:10.800Z,-10.48
2023-01-24T12:52:41.831Z,-10.50
2023-01-24T12:54:23.326Z,-10.53
2023-01-24T12:55:29.283Z,-10.58
2023-01-24T12:57:00.536Z,-10.60
2023-01-24T12:58:16.507Z,-10.67
2023-01-24T12:59:26.316Z,-10.69
2023-01-24T13:00:38.096Z,-10.72
2023-01-24T13:02:13.985Z,-10.74
2023-01-24T13:03:31.098Z,-10.76
2023-01-24T13:04:44.998Z,-10.78
2023-01-24T13:06:08.901Z,-10.81
2023-01-24T13:07:52.984Z,-10.84
2023-01-24T13:09:04.208Z,-10.86
2023-01-24T13:10:38.916Z,-10.88
2023-01-24T13:11:49.475Z,-10.92
2023-01-24T13:12:53.402Z,-10.96
2023-01-24T13:14:04.365Z,-10.97
2023-01-24T13:15:20.064Z,-11.00
2023-01-24T13:16:33.974Z,-11.04
2023-01-24T13:18:03.244Z,-11.06
2023-01-24T13:19:34.629Z,-11.07
2023-01-24T13:20:54.910Z,-11.07
2023-01-24T13:22:21.634Z,-11.08
2023-01-24T13:23:41.949Z,-11.10
2023-01-24T13:25:18.502Z,-11.11
2023-01-24T13:26:33.720Z,-11.12
2023-01-24T13:27:54.480Z,-11.14
2023-01-24T13:29:17.876Z,-11.14
2023-01-24T13:31:08.463Z,-11.16
2023-01-24T13:32:14.648Z,-11.16
2023-01-24T13:33:34.266Z,-11.18
2023-01-24T13:34:41.957Z,-11.18
2023-01-24T13:35:53.464Z,-11.18
2023-01-24T13:36:55.598Z,-11.19
2023-01-24T13:38:15.898Z,-11.19
2023-01-24T13:39:48.175Z,-11.17
2023-01-24T13:41:03.043Z,-11.15
2023-01-24T13:42:33.135Z,-11.14
2023-01-24T13:43:39.246Z,-11.15
2023-01-24T13:44:41.425Z,-11.16
2023-01-24T13:45:49.328Z,-11.18
2023-01-24T13:47:03.642Z,-11.16
2023-01-24T13:48:40.536Z,-11.15
2023-01-24T13:49:51.658Z,-11.17
2023-01-24T13:51:22.792Z,-11.18
2023-01-24T13:52:52.255Z,-11.19
2023-01-24T13:54:17.112Z,-11.23
2023-01-24T13:55:24.826Z,-11.23
2023-01-24T13:56:27.105Z,-11.27
2023-01-24T13:57:29.953Z,-11.27
2023-01-24T13:58:32.859Z,-11.31
2023-01-24T13:59:40.005Z,-11.34
2023-01-24T14:00:52.871Z,-11.35
2023-01-24T14:01:54.933Z,-11.37
2023-01-24T14:03:32.901Z,-11.38
2023-01-24T14:04:44.847Z,-11.39
2023-01-24T14:05:52.777Z,-11.39
2023-01-24T14:06:55.764Z,-11.39
2023-01-24T14:08:19.530Z,-11.42
2023-01-24T14:09:24.090Z,-11.43
2023-01-24T14:10:37.519Z,-11.42
2023-01-24T14:11:41.299Z,-11.43
2023-01-24T14:12:54.694Z,-11.44
2023-01-24T14:14:00.670Z,-11.45
2023-01-24T14:15:15.790Z,-11.49
2023-01-24T14:16:23.544Z,-11.52
2023-01-24T14:17:28.965Z,-11.54
2023-01-24T14:18:59.094Z,-11.57
2023-01-24T14:20:01.452Z,-11.58